Time;durP1;ratioP1;P1;durP2;ratioP2;P2;SDS_P1;SDS_P2;PMS_P1;PMS_P2;Temp;Humidity;BMP_temperature;BMP_pressure;BME280_temperature;BME280_humidity;BME280_pressure;Samples;Min_cycle;Max_cycle;Signal;HPM_P1;HPM_P2
2023/10/25 00:00:17;;;;;;;16.48;11.75;;;9.40;99.90;;;;;;5017473;28;20850;-74
2023/10/25 00:02:43;;;;;;;14.20;9.95;;;9.40;99.90;;;;;;5021710;28;20053;-75
2023/10/25 00:05:09;;;;;;;12.85;10.73;;;9.40;99.90;;;;;;5018196;28;20060;-80
2023/10/25 00:07:34;;;;;;;19.60;11.77;;;9.30;99.90;;;;;;5018886;28;20038;-75
2023/10/25 00:10:01;;;;;;;16.38;10.07;;;9.30;99.90;;;;;;5020409;28;20042;-75
2023/10/25 00:12:27;;;;;;;11.32;9.88;;;9.30;99.90;;;;;;5034284;28;20084;-75
2023/10/25 00:14:53;;;;;;;15.63;11.25;;;9.20;99.90;;;;;;5020175;28;20047;-75
2023/10/25 00:17:19;;;;;;;13.20;10.38;;;9.30;99.90;;;;;;5004900;28;20493;-75
2023/10/25 00:19:45;;;;;;;18.75;11.32;;;9.20;99.90;;;;;;5020679;28;20056;-75
2023/10/25 00:22:11;;;;;;;16.98;11.50;;;9.20;99.90;;;;;;5007664;28;20488;-75
2023/10/25 00:24:37;;;;;;;17.42;11.40;;;9.20;99.90;;;;;;5017614;28;20056;-75
2023/10/25 00:27:04;;;;;;;12.82;9.43;;;9.20;99.90;;;;;;5001970;28;20084;-75
2023/10/25 00:29:30;;;;;;;17.42;11.63;;;9.20;99.90;;;;;;5024249;28;20045;-75
2023/10/25 00:31:56;;;;;;;18.98;11.07;;;9.10;99.90;;;;;;5006036;28;20052;-80
2023/10/25 00:34:21;;;;;;;12.82;9.57;;;9.10;99.90;;;;;;5020065;28;20951;-80
2023/10/25 00:36:47;;;;;;;12.93;9.30;;;9.10;99.90;;;;;;5020975;28;20041;-80
2023/10/25 00:39:13;;;;;;;12.05;8.60;;;9.10;99.90;;;;;;5004877;28;20399;-80
2023/10/25 00:41:38;;;;;;;15.63;9.70;;;9.10;99.90;;;;;;5023403;28;20542;-80
2023/10/25 00:44:04;;;;;;;14.38;9.38;;;9.00;99.90;;;;;;5020722;28;20572;-80
2023/10/25 00:46:30;;;;;;;14.07;9.40;;;9.10;99.90;;;;;;5018941;28;20404;-80
2023/10/25 00:48:59;;;;;;;13.02;9.85;;;9.00;99.90;;;;;;5031496;28;20050;-79
2023/10/25 00:51:26;;;;;;;12.98;9.23;;;9.00;99.90;;;;;;5018973;28;20055;-79
2023/10/25 00:53:54;;;;;;;13.45;8.60;;;9.00;99.90;;;;;;5013705;28;20108;-80
2023/10/25 00:56:29;;;;;;;17.65;9.77;;;8.90;99.90;;;;;;5001233;28;21505;-79
2023/10/25 00:58:56;;;;;;;13.55;9.23;;;8.90;99.90;;;;;;5022735;28;20073;-74
2023/10/25 01:01:24;;;;;;;12.65;9.30;;;8.90;99.90;;;;;;5021181;28;20045;-75
2023/10/25 01:03:50;;;;;;;14.63;9.68;;;8.90;99.90;;;;;;5017368;28;20504;-74
2023/10/25 01:06:17;;;;;;;11.20;9.10;;;8.90;99.90;;;;;;5006256;28;20038;-74
2023/10/25 01:08:43;;;;;;;13.13;8.75;;;8.90;99.90;;;;;;5008821;28;20416;-74
2023/10/25 01:11:10;;;;;;;13.63;9.95;;;8.80;99.90;;;;;;5000478;28;20095;-74
2023/10/25 01:13:36;;;;;;;12.77;8.90;;;8.90;99.90;;;;;;5018542;28;20076;-80
2023/10/25 01:16:05;;;;;;;12.77;9.15;;;8.80;99.90;;;;;;5004228;28;20531;-79
2023/10/25 01:18:31;;;;;;;13.05;9.73;;;8.80;99.90;;;;;;5023034;28;20464;-80
2023/10/25 01:20:59;;;;;;;13.75;10.07;;;8.90;99.90;;;;;;5020163;28;20033;-80
2023/10/25 01:23:25;;;;;;;13.32;9.63;;;8.90;99.90;;;;;;5006477;28;20041;-74
2023/10/25 01:25:51;;;;;;;13.30;9.98;;;8.90;99.90;;;;;;5028155;28;20045;-74
2023/10/25 01:28:16;;;;;;;15.70;10.20;;;8.80;99.90;;;;;;5033788;28;20435;-74
2023/10/25 01:30:42;;;;;;;16.05;11.82;;;8.80;99.90;;;;;;5007115;28;20484;-74
2023/10/25 01:33:08;;;;;;;18.80;11.00;;;8.80;99.90;;;;;;5013986;28;20041;-74
2023/10/25 01:35:37;;;;;;;13.98;10.48;;;8.90;99.90;;;;;;5019291;28;20091;-74
2023/10/25 01:38:03;;;;;;;17.42;12.77;;;8.80;99.90;;;;;;5001908;28;20095;-74
2023/10/25 01:40:30;;;;;;;21.65;12.38;;;8.80;99.90;;;;;;5021245;28;20048;-74
2023/10/25 01:42:55;;;;;;;16.15;10.32;;;8.80;99.90;;;;;;5018253;28;20091;-74
2023/10/25 01:45:23;;;;;;;16.55;11.18;;;8.80;99.90;;;;;;5016626;28;20077;-74
2023/10/25 01:47:49;;;;;;;18.77;10.90;;;8.80;99.90;;;;;;5016833;28;20266;-74
2023/10/25 01:50:15;;;;;;;12.07;9.70;;;8.80;99.90;;;;;;5002708;28;20065;-74
2023/10/25 01:52:41;;;;;;;15.13;11.05;;;8.80;99.90;;;;;;5017518;28;20077;-74
2023/10/25 01:55:07;;;;;;;16.83;10.35;;;8.80;99.90;;;;;;5019474;28;20033;-74
2023/10/25 01:57:32;;;;;;;13.23;11.23;;;8.80;99.90;;;;;;5003046;28;20046;-74
2023/10/25 01:59:59;;;;;;;19.17;11.63;;;8.80;99.90;;;;;;5005931;28;20083;-74
2023/10/25 02:02:24;;;;;;;19.38;11.15;;;8.80;99.90;;;;;;5013393;28;20065;-74
2023/10/25 02:04:50;;;;;;;15.25;11.90;;;8.80;99.90;;;;;;5007154;28;20053;-74
2023/10/25 02:07:16;;;;;;;18.58;11.13;;;8.80;99.90;;;;;;5002056;28;20076;-74
2023/10/25 02:09:42;;;;;;;18.73;12.32;;;8.80;99.90;;;;;;5025825;28;20077;-74
2023/10/25 02:12:08;;;;;;;16.17;12.50;;;8.70;99.90;;;;;;5020838;28;20443;-74
2023/10/25 02:14:34;;;;;;;19.52;12.63;;;8.70;99.90;;;;;;5003794;28;20103;-74
2023/10/25 02:16:59;;;;;;;20.38;13.75;;;8.70;99.90;;;;;;5004013;28;20045;-74
2023/10/25 02:19:25;;;;;;;15.60;12.50;;;8.70;99.90;;;;;;5010170;28;20100;-74
2023/10/25 02:21:51;;;;;;;15.25;12.23;;;8.70;99.90;;;;;;5005425;28;20046;-73
2023/10/25 02:24:17;;;;;;;17.73;13.80;;;8.70;99.90;;;;;;5011978;28;20449;-74
2023/10/25 02:26:43;;;;;;;19.05;12.77;;;8.70;99.90;;;;;;5022671;28;20050;-74
2023/10/25 02:29:09;;;;;;;15.45;13.82;;;8.70;99.90;;;;;;5015285;28;20100;-74
2023/10/25 02:31:36;;;;;;;18.08;14.68;;;8.60;99.90;;;;;;5007067;28;20049;-74
2023/10/25 02:34:02;;;;;;;22.15;15.85;;;8.60;99.90;;;;;;5019579;28;20057;-74
2023/10/25 02:36:29;;;;;;;16.73;14.23;;;8.60;99.90;;;;;;4998127;28;20037;-74
2023/10/25 02:38:55;;;;;;;18.85;15.10;;;8.60;99.90;;;;;;5002631;28;20049;-74
2023/10/25 02:41:20;;;;;;;20.38;15.73;;;8.60;99.90;;;;;;5013714;28;20526;-73
2023/10/25 02:43:46;;;;;;;18.58;15.52;;;8.60;99.90;;;;;;5021049;28;20049;-74
2023/10/25 02:46:13;;;;;;;16.88;14.70;;;8.60;99.90;;;;;;5002804;28;20045;-74
2023/10/25 02:48:39;;;;;;;24.33;18.45;;;8.60;99.90;;;;;;5019607;28;20053;-74
2023/10/25 02:51:05;;;;;;;19.33;15.75;;;8.60;99.90;;;;;;5003196;28;20034;-74
2023/10/25 02:53:31;;;;;;;18.90;14.73;;;8.60;99.90;;;;;;5020623;28;20045;-74
2023/10/25 02:56:07;;;;;;;18.23;15.30;;;8.60;99.90;;;;;;5001994;28;20045;-74
2023/10/25 02:58:34;;;;;;;23.73;18.08;;;8.60;99.90;;;;;;5021291;28;20420;-74
2023/10/25 03:01:00;;;;;;;20.15;16.95;;;8.60;99.90;;;;;;5025556;28;20446;-74
2023/10/25 03:03:31;;;;;;;17.73;15.50;;;8.60;99.90;;;;;;5021087;28;20034;-74
2023/10/25 03:05:57;;;;;;;20.77;17.30;;;8.60;99.90;;;;;;5006193;28;20116;-80
2023/10/25 03:08:24;;;;;;;17.17;14.82;;;8.60;99.90;;;;;;5005827;28;20109;-79
2023/10/25 03:10:49;;;;;;;19.02;15.32;;;8.60;99.90;;;;;;5019749;28;20051;-79
2023/10/25 03:13:15;;;;;;;21.70;15.10;;;8.50;99.90;;;;;;5008048;28;20045;-80
2023/10/25 03:15:41;;;;;;;18.48;14.50;;;8.60;99.90;;;;;;5010067;28;20053;-80
2023/10/25 03:18:08;;;;;;;20.48;14.93;;;8.50;99.90;;;;;;5016831;28;20400;-79
2023/10/25 03:20:37;;;;;;;16.75;13.50;;;8.50;99.90;;;;;;5000287;28;20095;-79
2023/10/25 03:23:06;;;;;;;16.67;13.80;;;8.50;99.90;;;;;;5013343;28;20046;-81
2023/10/25 03:25:31;;;;;;;17.15;13.98;;;8.50;99.90;;;;;;5006039;28;20435;-80
2023/10/25 03:27:57;;;;;;;16.08;13.40;;;8.50;99.90;;;;;;5006105;28;20045;-80
2023/10/25 03:30:23;;;;;;;15.82;13.55;;;8.50;99.90;;;;;;5020962;28;20539;-80
2023/10/25 03:32:48;;;;;;;16.77;12.45;;;8.50;99.90;;;;;;5008850;28;20492;-80
2023/10/25 03:35:14;;;;;;;18.73;14.60;;;8.40;99.90;;;;;;5019510;28;20511;-80
2023/10/25 03:37:40;;;;;;;23.60;15.88;;;8.40;99.90;;;;;;5020045;28;20411;-80
2023/10/25 03:40:10;;;;;;;14.23;12.73;;;8.40;99.90;;;;;;5020450;28;20037;-80
2023/10/25 03:42:36;;;;;;;17.58;13.05;;;8.40;99.90;;;;;;5010710;28;20041;-82
2023/10/25 03:45:03;;;;;;;20.55;15.20;;;8.30;99.90;;;;;;5022731;28;20081;-82
2023/10/25 03:47:29;;;;;;;16.13;13.65;;;8.40;99.90;;;;;;5002619;28;20050;-83
2023/10/25 03:49:54;;;;;;;19.40;14.85;;;8.40;99.90;;;;;;5019698;28;20107;-80
2023/10/25 03:52:21;;;;;;;17.85;13.70;;;8.30;99.90;;;;;;5020811;28;20111;-80
2023/10/25 03:54:46;;;;;;;18.27;13.63;;;8.30;99.90;;;;;;5023879;28;20492;-80
2023/10/25 03:57:12;;;;;;;20.23;14.15;;;8.30;99.90;;;;;;5007080;28;20112;-80
2023/10/25 03:59:38;;;;;;;14.38;12.85;;;8.30;99.90;;;;;;5015332;28;20519;-80
2023/10/25 04:02:04;;;;;;;20.13;15.80;;;8.30;99.90;;;;;;5017490;28;20061;-73
2023/10/25 04:04:30;;;;;;;21.30;14.23;;;8.30;99.90;;;;;;5015741;28;20041;-73
2023/10/25 04:06:56;;;;;;;18.55;14.55;;;8.30;99.90;;;;;;5010627;28;20046;-74
2023/10/25 04:09:22;;;;;;;16.60;13.98;;;8.30;99.90;;;;;;5014589;28;20046;-74
2023/10/25 04:11:48;;;;;;;17.55;14.45;;;8.30;99.90;;;;;;5005265;28;20050;-74
2023/10/25 04:14:14;;;;;;;19.20;13.32;;;8.30;99.90;;;;;;5019288;28;20080;-74
2023/10/25 04:16:40;;;;;;;18.63;14.32;;;8.30;99.90;;;;;;5009359;28;20080;-74
2023/10/25 04:19:06;;;;;;;24.42;15.13;;;8.30;99.90;;;;;;4995477;28;20042;-74
2023/10/25 04:21:31;;;;;;;15.18;12.98;;;8.20;99.90;;;;;;4997690;28;20688;-74
2023/10/25 04:23:57;;;;;;;15.85;14.00;;;8.30;99.90;;;;;;5019184;28;20104;-74
2023/10/25 04:26:23;;;;;;;17.10;13.38;;;8.20;99.90;;;;;;5005386;28;20045;-74
2023/10/25 04:28:49;;;;;;;17.83;14.02;;;8.20;99.90;;;;;;5014555;28;20128;-74
2023/10/25 04:31:16;;;;;;;16.65;14.05;;;8.20;99.90;;;;;;5004287;28;20125;-74
2023/10/25 04:33:42;;;;;;;18.77;13.85;;;8.20;99.90;;;;;;4995974;28;20508;-74
2023/10/25 04:36:08;;;;;;;19.95;14.52;;;8.20;99.90;;;;;;5000984;28;20095;-74
2023/10/25 04:38:34;;;;;;;17.95;15.18;;;8.10;99.90;;;;;;5013759;28;20084;-74
2023/10/25 04:41:01;;;;;;;19.05;13.70;;;8.10;99.90;;;;;;5021050;28;20069;-74
2023/10/25 04:43:27;;;;;;;16.50;12.90;;;8.20;99.90;;;;;;5017345;28;20044;-74
2023/10/25 04:45:52;;;;;;;17.05;13.32;;;8.10;99.90;;;;;;5017363;28;20061;-74
2023/10/25 04:48:18;;;;;;;20.58;13.32;;;8.10;99.90;;;;;;5002837;28;20069;-74
2023/10/25 04:50:44;;;;;;;21.73;15.02;;;8.10;99.90;;;;;;4988655;28;20518;-74
2023/10/25 04:53:10;;;;;;;24.50;14.68;;;8.10;99.90;;;;;;5018410;28;20040;-74
2023/10/25 04:55:37;;;;;;;17.75;13.63;;;8.10;99.90;;;;;;5016101;28;20455;-74
2023/10/25 04:58:06;;;;;;;17.35;12.52;;;8.10;99.90;;;;;;5012911;28;20533;-74
2023/10/25 05:00:32;;;;;;;18.67;13.38;;;8.10;99.90;;;;;;5018824;28;20592;-80
2023/10/25 05:02:58;;;;;;;16.90;13.45;;;8.00;99.90;;;;;;5013737;28;20582;-80
2023/10/25 05:05:25;;;;;;;16.00;12.45;;;8.00;99.90;;;;;;5008350;28;20337;-80
2023/10/25 05:07:51;;;;;;;18.48;14.13;;;8.00;99.90;;;;;;5037144;28;20081;-80
2023/10/25 05:10:18;;;;;;;17.65;13.20;;;8.00;99.90;;;;;;5016243;28;20045;-80
2023/10/25 05:12:45;;;;;;;16.50;12.02;;;8.00;99.90;;;;;;5009740;28;20042;-80
2023/10/25 05:15:15;;;;;;;19.10;12.70;;;8.00;99.90;;;;;;4962023;28;1239377;-80
2023/10/25 05:17:42;;;;;;;;;;;8.00;99.90;;;;;;5011694;28;20093;-80
2023/10/25 05:20:09;;;;;;;15.45;11.43;;;8.00;99.90;;;;;;5017438;28;19929;-80
2023/10/25 05:22:36;;;;;;;16.10;11.95;;;8.00;99.90;;;;;;5019260;28;20061;-80
2023/10/25 05:25:07;;;;;;;16.55;12.00;;;8.00;99.90;;;;;;5007754;28;20563;-80
2023/10/25 05:27:34;;;;;;;20.17;12.23;;;7.90;99.90;;;;;;5012984;28;20052;-80
2023/10/25 05:30:03;;;;;;;18.55;11.93;;;7.90;99.90;;;;;;5019576;28;20385;-80
2023/10/25 05:32:34;;;;;;;17.10;11.18;;;7.90;99.90;;;;;;5007063;28;20438;-80
2023/10/25 05:35:01;;;;;;;15.93;11.98;;;7.90;99.90;;;;;;4999559;28;20072;-80
2023/10/25 05:37:28;;;;;;;14.75;11.27;;;7.90;99.90;;;;;;5007222;28;20508;-80
2023/10/25 05:39:54;;;;;;;18.83;12.13;;;7.90;99.90;;;;;;4995518;28;20056;-80
2023/10/25 05:42:21;;;;;;;17.98;13.98;;;7.80;99.90;;;;;;5011949;28;20136;-80
2023/10/25 05:44:48;;;;;;;18.15;13.00;;;7.80;99.90;;;;;;5015919;28;20049;-81
2023/10/25 05:47:17;;;;;;;16.20;11.90;;;7.80;99.90;;;;;;4997134;28;20403;-81
2023/10/25 05:49:43;;;;;;;16.92;12.65;;;7.80;99.90;;;;;;5017496;28;20057;-80
2023/10/25 05:52:10;;;;;;;24.02;14.70;;;7.70;99.90;;;;;;5015307;28;20045;-81
2023/10/25 05:54:39;;;;;;;15.30;11.68;;;7.70;99.90;;;;;;5019992;28;20511;-80
2023/10/25 05:57:06;;;;;;;18.02;12.50;;;7.70;99.90;;;;;;4999769;28;20049;-80
2023/10/25 05:59:32;;;;;;;15.48;12.95;;;7.70;99.90;;;;;;5023389;28;20037;-80
2023/10/25 06:02:22;;;;;;;15.13;11.73;;;7.70;99.90;;;;;;5003308;28;20049;-80
2023/10/25 06:04:49;;;;;;;18.58;14.32;;;7.60;99.90;;;;;;5033302;28;21128;-80
2023/10/25 06:07:15;;;;;;;16.67;12.43;;;7.60;99.90;;;;;;5002979;28;20041;-80
2023/10/25 06:09:42;;;;;;;20.38;13.95;;;7.60;99.90;;;;;;5020154;28;20069;-80
2023/10/25 06:12:09;;;;;;;24.13;15.05;;;7.60;99.90;;;;;;5016072;28;20504;-80
2023/10/25 06:14:35;;;;;;;18.50;13.23;;;7.60;99.90;;;;;;5018275;28;20496;-80
2023/10/25 06:17:02;;;;;;;19.65;13.65;;;7.60;99.90;;;;;;5005332;28;20044;-80
2023/10/25 06:19:28;;;;;;;16.30;12.93;;;7.50;99.90;;;;;;5002273;28;20039;-80
2023/10/25 06:21:55;;;;;;;18.15;13.93;;;7.50;99.90;;;;;;4996830;28;20738;-80
2023/10/25 06:24:21;;;;;;;22.33;13.52;;;7.50;99.90;;;;;;5016839;28;20445;-80
2023/10/25 06:26:46;;;;;;;17.90;14.48;;;7.50;99.90;;;;;;5000312;28;20034;-80
2023/10/25 06:29:12;;;;;;;18.58;14.00;;;7.50;99.90;;;;;;5024132;28;20067;-80
2023/10/25 06:31:38;;;;;;;23.27;15.82;;;7.50;99.90;;;;;;4991757;28;20049;-80
2023/10/25 06:34:04;;;;;;;22.40;14.75;;;7.50;99.90;;;;;;5027314;28;20049;-80
2023/10/25 06:36:34;;;;;;;19.55;16.20;;;7.50;99.90;;;;;;5001414;28;20080;-80
2023/10/25 06:39:04;;;;;;;19.67;15.82;;;7.50;99.90;;;;;;5009447;28;20052;-80
2023/10/25 06:41:34;;;;;;;19.90;15.10;;;7.50;99.90;;;;;;5008396;28;20055;-80
2023/10/25 06:44:00;;;;;;;23.23;17.23;;;7.60;99.90;;;;;;5020492;28;20049;-79
2023/10/25 06:46:26;;;;;;;21.35;17.77;;;7.60;99.90;;;;;;5009037;28;20079;-80
2023/10/25 06:48:54;;;;;;;20.10;14.93;;;7.70;99.90;;;;;;5036794;28;20055;-80
2023/10/25 06:51:20;;;;;;;27.33;18.67;;;7.70;99.90;;;;;;5007653;28;20038;-80
2023/10/25 06:53:46;;;;;;;19.52;16.67;;;7.70;99.90;;;;;;5025064;28;20049;-80
2023/10/25 06:56:13;;;;;;;21.00;15.30;;;7.70;99.90;;;;;;5024308;28;20037;-80
2023/10/25 06:58:40;;;;;;;19.75;16.85;;;7.70;99.90;;;;;;5015086;28;20089;-80
2023/10/25 07:01:07;;;;;;;25.92;18.65;;;7.70;99.90;;;;;;5025186;28;20100;-80
2023/10/25 07:03:35;;;;;;;31.33;21.15;;;7.70;99.90;;;;;;5006438;28;20046;-80
2023/10/25 07:06:03;;;;;;;18.77;14.75;;;7.70;99.90;;;;;;5023529;28;20554;-80
2023/10/25 07:08:30;;;;;;;19.65;16.45;;;7.70;99.90;;;;;;5020348;28;20033;-80
2023/10/25 07:10:56;;;;;;;20.20;15.95;;;7.70;99.90;;;;;;5022702;28;20045;-81
2023/10/25 07:13:29;;;;;;;20.92;17.27;;;7.70;99.90;;;;;;5021575;28;20095;-81
2023/10/25 07:15:56;;;;;;;24.48;18.80;;;7.70;99.90;;;;;;5023702;28;20045;-81
2023/10/25 07:18:22;;;;;;;19.60;17.52;;;7.70;99.90;;;;;;5021318;28;20397;-81
2023/10/25 07:20:50;;;;;;;17.90;14.63;;;7.70;99.90;;;;;;5019889;28;20046;-81
2023/10/25 07:23:16;;;;;;;22.70;18.30;;;7.70;99.90;;;;;;5018872;28;20149;-81
2023/10/25 07:25:43;;;;;;;18.40;16.20;;;7.70;99.90;;;;;;5017169;28;20439;-81
2023/10/25 07:28:10;;;;;;;20.55;18.20;;;7.70;99.90;;;;;;5020633;28;20049;-81
2023/10/25 07:30:36;;;;;;;18.95;16.77;;;7.70;99.90;;;;;;5024062;28;20092;-80
2023/10/25 07:33:02;;;;;;;18.85;16.00;;;7.80;99.90;;;;;;5017675;28;20047;-81
2023/10/25 07:35:28;;;;;;;17.88;16.13;;;7.80;99.90;;;;;;5020807;28;20049;-80
2023/10/25 07:37:54;;;;;;;29.48;18.15;;;7.80;99.90;;;;;;5022799;28;20045;-74
2023/10/25 07:40:20;;;;;;;20.13;17.65;;;7.80;99.90;;;;;;5002496;28;20393;-74
2023/10/25 07:42:48;;;;;;;24.02;18.05;;;7.80;99.90;;;;;;5018827;28;20053;-73
2023/10/25 07:45:14;;;;;;;19.10;16.27;;;7.90;99.90;;;;;;5021249;28;20136;-73
2023/10/25 07:47:40;;;;;;;17.08;15.13;;;7.90;99.90;;;;;;5017107;28;20042;-73
2023/10/25 07:50:07;;;;;;;16.67;14.93;;;7.90;99.90;;;;;;5020247;28;20046;-73
2023/10/25 07:52:36;;;;;;;24.13;18.42;;;8.00;99.90;;;;;;5016879;28;20091;-73
2023/10/25 07:55:04;;;;;;;17.60;15.40;;;8.00;99.90;;;;;;5009639;28;20670;-74
2023/10/25 07:57:33;;;;;;;18.45;16.50;;;8.10;99.90;;;;;;5016914;28;20041;-74
2023/10/25 07:59:59;;;;;;;19.63;17.55;;;8.10;99.90;;;;;;5009355;28;20045;-74
2023/10/25 08:02:25;;;;;;;23.58;18.33;;;8.20;99.90;;;;;;5021022;28;20403;-74
2023/10/25 08:04:51;;;;;;;24.13;19.27;;;8.20;99.90;;;;;;5023638;28;20136;-74
2023/10/25 08:07:17;;;;;;;18.23;15.63;;;8.30;99.90;;;;;;5019858;28;20052;-74
2023/10/25 08:09:44;;;;;;;17.88;15.27;;;8.30;99.90;;;;;;5022680;28;20503;-74
2023/10/25 08:12:10;;;;;;;16.38;14.68;;;8.30;99.90;;;;;;5023676;28;20044;-73
2023/10/25 08:14:36;;;;;;;19.08;17.08;;;8.30;99.90;;;;;;5018633;28;20050;-74
2023/10/25 08:17:02;;;;;;;25.02;16.83;;;8.40;99.90;;;;;;5020438;28;20062;-73
2023/10/25 08:19:29;;;;;;;18.02;16.02;;;8.50;99.90;;;;;;5018277;28;20119;-73
2023/10/25 08:21:54;;;;;;;18.08;15.38;;;8.50;99.90;;;;;;5019660;28;20041;-73
2023/10/25 08:24:20;;;;;;;18.17;14.63;;;8.50;99.90;;;;;;5019969;28;20115;-73
2023/10/25 08:26:46;;;;;;;20.05;15.98;;;8.60;99.90;;;;;;5003972;28;20056;-73
2023/10/25 08:29:12;;;;;;;16.80;14.07;;;8.60;99.90;;;;;;5021181;28;20045;-73
2023/10/25 08:31:37;;;;;;;22.88;17.58;;;8.70;99.90;;;;;;5019595;28;20873;-73
2023/10/25 08:34:03;;;;;;;16.67;14.98;;;8.80;99.90;;;;;;5023654;28;20037;-73
2023/10/25 08:36:30;;;;;;;18.73;15.75;;;8.80;99.90;;;;;;5005738;28;20051;-73
2023/10/25 08:38:56;;;;;;;17.33;15.20;;;8.80;99.90;;;;;;5019867;28;20064;-73
2023/10/25 08:41:25;;;;;;;20.75;16.02;;;8.80;99.90;;;;;;5001144;28;20527;-73
2023/10/25 08:43:52;;;;;;;17.85;15.90;;;8.90;99.90;;;;;;5014818;28;20108;-73
2023/10/25 08:46:20;;;;;;;17.85;15.68;;;8.90;99.90;;;;;;5021061;28;20522;-73
2023/10/25 08:48:47;;;;;;;22.30;17.15;;;9.00;99.90;;;;;;5004508;28;20049;-73
2023/10/25 08:51:14;;;;;;;20.35;15.85;;;9.00;99.90;;;;;;5018517;28;20057;-73
2023/10/25 08:53:41;;;;;;;17.85;15.93;;;9.00;99.90;;;;;;5023214;28;20099;-73
2023/10/25 08:56:08;;;;;;;17.50;14.98;;;9.10;99.90;;;;;;5019382;28;20072;-73
2023/10/25 08:58:34;;;;;;;17.90;15.60;;;9.10;99.90;;;;;;5019432;28;20135;-75
2023/10/25 09:01:00;;;;;;;17.00;15.30;;;9.20;99.90;;;;;;5021713;28;20042;-73
2023/10/25 09:03:29;;;;;;;18.90;16.60;;;9.20;99.90;;;;;;5016160;28;20042;-73
2023/10/25 09:05:55;;;;;;;19.25;16.92;;;9.20;99.90;;;;;;5018893;28;20584;-73
2023/10/25 09:08:20;;;;;;;21.92;16.63;;;9.30;99.90;;;;;;5002170;28;20132;-73
2023/10/25 09:10:57;;;;;;;18.77;15.52;;;9.30;99.90;;;;;;5018053;28;20496;-74
2023/10/25 09:13:24;;;;;;;20.90;15.85;;;9.40;99.90;;;;;;5004964;28;20217;-74
2023/10/25 09:15:50;;;;;;;20.38;17.10;;;9.40;99.90;;;;;;5005345;28;20404;-73
2023/10/25 09:18:16;;;;;;;19.17;16.40;;;9.50;99.90;;;;;;5021026;28;20337;-74
2023/10/25 09:20:51;;;;;;;17.88;15.40;;;9.50;99.90;;;;;;5022662;28;20555;-74
2023/10/25 09:23:16;;;;;;;18.55;16.13;;;9.60;99.90;;;;;;4999659;28;20160;-74
2023/10/25 09:25:44;;;;;;;18.67;15.95;;;9.80;99.90;;;;;;5020026;28;20144;-74
2023/10/25 09:28:30;;;;;;;19.30;16.15;;;9.80;99.90;;;;;;5001575;28;20120;-74
2023/10/25 09:30:58;;;;;;;19.02;15.13;;;9.90;99.90;;;;;;5013545;28;20132;-74
2023/10/25 09:33:27;;;;;;;18.15;15.05;;;9.90;99.90;;;;;;5020547;28;20050;-80
2023/10/25 09:35:53;;;;;;;16.90;14.65;;;10.00;99.90;;;;;;5005896;28;20060;-80
2023/10/25 09:38:19;;;;;;;15.65;14.15;;;10.10;99.90;;;;;;5018278;28;20095;-79
2023/10/25 09:40:46;;;;;;;17.35;14.10;;;10.30;99.90;;;;;;5006080;28;20545;-79
2023/10/25 09:43:21;;;;;;;16.90;13.70;;;10.40;99.90;;;;;;5021370;28;20056;-79
2023/10/25 09:45:57;;;;;;;15.85;13.13;;;10.50;99.90;;;;;;5002207;28;20637;-79
2023/10/25 09:48:23;;;;;;;13.73;12.30;;;10.60;99.90;;;;;;5022784;28;20499;-80
2023/10/25 09:51:09;;;;;;;18.42;12.80;;;10.60;99.90;;;;;;5001541;28;20056;-79
2023/10/25 09:53:57;;;;;;;15.68;13.55;;;10.80;99.90;;;;;;5022175;28;20061;-74
2023/10/25 09:56:23;;;;;;;13.75;12.00;;;10.90;99.90;;;;;;5039747;28;20420;-75
2023/10/25 09:58:51;;;;;;;13.98;12.02;;;11.00;99.90;;;;;;5003236;28;20050;-75
2023/10/25 10:01:16;;;;;;;21.33;11.93;;;11.00;99.90;;;;;;5023057;28;20350;-74
2023/10/25 10:03:59;;;;;;;13.80;11.00;;;11.10;99.90;;;;;;5006205;28;20052;-74
2023/10/25 10:06:34;;;;;;;14.40;12.48;;;11.20;99.90;;;;;;5034806;28;20069;-74
2023/10/25 10:09:18;;;;;;;16.58;12.20;;;11.30;99.90;;;;;;5026421;28;20053;-75
2023/10/25 10:11:49;;;;;;;15.77;11.05;;;11.40;99.90;;;;;;5025837;28;20053;-75
2023/10/25 10:14:31;;;;;;;13.75;10.30;;;11.40;99.90;;;;;;5023552;28;20136;-74
2023/10/25 10:17:08;;;;;;;14.57;9.98;;;11.50;99.90;;;;;;5006702;28;20120;-74
2023/10/25 10:19:38;;;;;;;12.15;9.90;;;11.60;99.90;;;;;;5023396;28;20049;-74
2023/10/25 10:22:31;;;;;;;10.95;9.75;;;11.60;99.90;;;;;;5009635;28;20045;-74
2023/10/25 10:24:58;;;;;;;12.57;9.50;;;11.70;99.90;;;;;;5017310;28;20046;-74
2023/10/25 10:27:51;;;;;;;11.73;9.85;;;11.70;99.90;;;;;;5007441;28;20041;-75
2023/10/25 10:30:39;;;;;;;11.95;9.55;;;11.70;99.90;;;;;;5017743;28;20156;-75
2023/10/25 10:33:09;;;;;;;12.23;10.05;;;11.70;99.90;;;;;;5024149;28;20045;-75
2023/10/25 10:35:34;;;;;;;14.15;10.32;;;11.70;99.90;;;;;;5008667;28;20066;-75
2023/10/25 10:38:00;;;;;;;17.13;9.73;;;11.70;99.90;;;;;;5018317;28;20533;-75
2023/10/25 10:40:26;;;;;;;14.27;11.18;;;11.70;99.90;;;;;;5024446;28;20037;-75
2023/10/25 10:42:52;;;;;;;12.27;8.82;;;11.70;99.90;;;;;;5007858;28;20045;-74
2023/10/25 10:45:19;;;;;;;13.90;9.98;;;11.80;99.90;;;;;;5023331;28;20080;-75
2023/10/25 10:47:55;;;;;;;10.90;9.77;;;11.80;99.90;;;;;;5041348;28;20042;-75
2023/10/25 10:50:23;;;;;;;11.27;9.45;;;11.80;99.90;;;;;;5023364;28;20411;-75
2023/10/25 10:52:50;;;;;;;13.65;9.30;;;11.80;99.90;;;;;;5021044;28;20454;-74
2023/10/25 10:55:19;;;;;;;11.32;9.55;;;11.80;99.90;;;;;;5024875;28;20377;-74
2023/10/25 10:57:45;;;;;;;10.80;8.80;;;11.80;99.90;;;;;;5008881;28;20091;-74
2023/10/25 11:00:13;;;;;;;14.30;9.82;;;11.80;99.90;;;;;;5019782;28;20107;-74
2023/10/25 11:02:50;;;;;;;11.38;9.32;;;11.80;99.90;;;;;;5022837;28;20064;-74
2023/10/25 11:05:19;;;;;;;9.48;8.38;;;11.80;99.90;;;;;;5021150;28;20048;-74
2023/10/25 11:07:47;;;;;;;10.57;9.48;;;11.80;99.90;;;;;;5017942;28;20048;-74
2023/10/25 11:10:13;;;;;;;13.05;9.45;;;11.70;99.90;;;;;;5024113;28;20053;-75
2023/10/25 11:12:39;;;;;;;13.38;9.52;;;11.70;99.90;;;;;;5008699;28;20049;-74
2023/10/25 11:15:06;;;;;;;14.05;9.20;;;11.70;99.90;;;;;;5023845;28;20088;-74
2023/10/25 11:17:33;;;;;;;13.32;8.90;;;11.70;99.90;;;;;;5018534;28;20385;-74
2023/10/25 11:19:59;;;;;;;10.77;9.20;;;11.60;99.90;;;;;;5021443;28;20136;-74
2023/10/25 11:22:25;;;;;;;9.50;8.50;;;11.60;99.90;;;;;;5021921;28;20087;-74
2023/10/25 11:24:52;;;;;;;11.23;8.13;;;11.60;99.90;;;;;;5024285;28;20041;-74
2023/10/25 11:27:18;;;;;;;12.50;7.85;;;11.50;99.90;;;;;;5008375;28;20048;-74
2023/10/25 11:29:45;;;;;;;11.40;8.45;;;11.50;99.90;;;;;;5040346;28;20404;-74
2023/10/25 11:32:12;;;;;;;10.13;8.27;;;11.50;99.90;;;;;;5006024;28;20412;-74
2023/10/25 11:34:43;;;;;;;9.60;7.88;;;11.50;99.90;;;;;;5005131;28;20517;-74
2023/10/25 11:37:12;;;;;;;11.65;8.48;;;11.50;99.90;;;;;;5005593;28;20787;-74
2023/10/25 11:39:58;;;;;;;12.43;8.60;;;11.40;99.90;;;;;;5003537;28;20045;-74
2023/10/25 11:42:31;;;;;;;11.10;8.38;;;11.40;99.90;;;;;;5021449;28;20057;-74
2023/10/25 11:44:59;;;;;;;9.15;8.07;;;11.40;99.90;;;;;;5014146;28;20171;-74
2023/10/25 11:47:27;;;;;;;9.60;7.72;;;11.30;99.90;;;;;;5020357;28;20542;-74
2023/10/25 11:50:00;;;;;;;10.10;7.93;;;11.30;99.90;;;;;;5014049;28;20045;-74
2023/10/25 11:52:28;;;;;;;12.05;8.45;;;11.40;99.90;;;;;;5021389;28;20064;-74
2023/10/25 11:54:56;;;;;;;12.25;9.70;;;11.40;99.90;;;;;;5020385;28;20049;-74
2023/10/25 11:57:23;;;;;;;10.88;8.30;;;11.30;99.90;;;;;;4993269;28;20033;-74
2023/10/25 11:59:50;;;;;;;11.75;8.00;;;11.30;99.90;;;;;;5006474;28;20052;-74
2023/10/25 12:02:15;;;;;;;9.93;8.07;;;11.30;99.90;;;;;;5007490;28;20056;-74
2023/10/25 12:04:41;;;;;;;11.90;8.27;;;11.30;99.90;;;;;;5002949;28;20046;-74
2023/10/25 12:07:07;;;;;;;10.20;7.22;;;11.30;99.90;;;;;;5024553;28;20042;-74
2023/10/25 12:09:34;;;;;;;9.63;7.32;;;11.30;99.90;;;;;;5003918;28;20033;-74
2023/10/25 12:11:59;;;;;;;11.20;7.40;;;11.30;99.90;;;;;;5021234;28;20089;-74
2023/10/25 12:14:25;;;;;;;8.82;7.53;;;11.30;99.90;;;;;;5005561;28;20073;-74
2023/10/25 12:16:51;;;;;;;10.73;7.97;;;11.30;99.90;;;;;;5021302;28;20043;-74
2023/10/25 12:19:16;;;;;;;10.05;7.80;;;11.30;99.90;;;;;;5006071;28;20069;-75
2023/10/25 12:21:42;;;;;;;9.40;7.53;;;11.30;99.90;;;;;;5018330;28;20046;-76
2023/10/25 12:24:09;;;;;;;12.57;7.80;;;11.30;99.90;;;;;;5004669;28;20041;-76
2023/10/25 12:26:35;;;;;;;13.73;7.43;;;11.20;99.90;;;;;;5020864;28;20451;-76
2023/10/25 12:29:00;;;;;;;9.27;6.70;;;11.20;99.90;;;;;;5017843;28;20044;-76
2023/10/25 12:31:26;;;;;;;10.07;7.35;;;11.20;99.90;;;;;;5005075;28;20038;-76
2023/10/25 12:33:52;;;;;;;12.32;7.05;;;11.20;99.90;;;;;;5007708;28;20395;-77
2023/10/25 12:36:18;;;;;;;10.25;6.85;;;11.20;99.90;;;;;;5002241;28;20504;-78
2023/10/25 12:38:45;;;;;;;12.50;7.47;;;11.10;99.90;;;;;;5020536;28;20068;-78